sensor_id;sensor_type;location;lat;lon;timestamp;pressure;altitude;pressure_sealevel;temperature;humidity
12757;BME280;31601;48.042;12.240;2023-02-12T00:00:47;98014.59;;;4.81;49.52
12757;BME280;31601;48.042;12.240;2023-02-12T00:03:14;98008.97;;;4.88;49.58
12757;BME280;31601;48.042;12.240;2023-02-12T00:05:42;98004.53;;;4.90;49.39
12757;BME280;31601;48.042;12.240;2023-02-12T00:08:09;98019.06;;;4.92;49.40
12757;BME280;31601;48.042;12.240;2023-02-12T00:10:39;98021.56;;;4.94;49.14
12757;BME280;31601;48.042;12.240;2023-02-12T00:13:07;98019.63;;;4.97;49.04
12757;BME280;31601;48.042;12.240;2023-02-12T00:15:33;98018.66;;;4.98;49.08
12757;BME280;31601;48.042;12.240;2023-02-12T00:18:00;98016.25;;;4.95;49.13
12757;BME280;31601;48.042;12.240;2023-02-12T00:20:26;98010.66;;;5.01;49.39
12757;BME280;31601;48.042;12.240;2023-02-12T00:22:54;98015.53;;;5.06;49.18
12757;BME280;31601;48.042;12.240;2023-02-12T00:25:20;98020.34;;;4.99;49.01
12757;BME280;31601;48.042;12.240;2023-02-12T00:27:47;98017.72;;;4.99;49.68
12757;BME280;31601;48.042;12.240;2023-02-12T00:30:13;98013.34;;;5.00;49.33
12757;BME280;31601;48.042;12.240;2023-02-12T00:32:40;98012.75;;;4.96;49.66
12757;BME280;31601;48.042;12.240;2023-02-12T00:35:06;98019.81;;;4.94;49.74
12757;BME280;31601;48.042;12.240;2023-02-12T00:37:33;98017.00;;;4.97;49.74
12757;BME280;31601;48.042;12.240;2023-02-12T00:40:01;98016.69;;;4.89;49.79
12757;BME280;31601;48.042;12.240;2023-02-12T00:42:27;98028.44;;;4.95;49.54
12757;BME280;31601;48.042;12.240;2023-02-12T00:44:53;98027.63;;;4.94;49.89
12757;BME280;31601;48.042;12.240;2023-02-12T00:47:20;98036.97;;;4.97;49.61
12757;BME280;31601;48.042;12.240;2023-02-12T00:49:46;98038.66;;;4.98;50.09
12757;BME280;31601;48.042;12.240;2023-02-12T00:52:13;98037.94;;;4.96;49.75
12757;BME280;31601;48.042;12.240;2023-02-12T00:54:39;98038.03;;;4.94;49.97
12757;BME280;31601;48.042;12.240;2023-02-12T00:57:07;98041.66;;;4.92;50.28
12757;BME280;31601;48.042;12.240;2023-02-12T00:59:33;98054.88;;;4.89;49.96
12757;BME280;31601;48.042;12.240;2023-02-12T01:02:02;98044.97;;;4.94;49.85
12757;BME280;31601;48.042;12.240;2023-02-12T01:04:28;98046.97;;;4.90;49.96
12757;BME280;31601;48.042;12.240;2023-02-12T01:06:55;98041.66;;;4.92;50.03
12757;BME280;31601;48.042;12.240;2023-02-12T01:09:21;98050.94;;;4.96;49.84
12757;BME280;31601;48.042;12.240;2023-02-12T01:11:48;98051.66;;;4.85;50.33
12757;BME280;31601;48.042;12.240;2023-02-12T01:14:15;98053.03;;;4.51;51.14
12757;BME280;31601;48.042;12.240;2023-02-12T01:16:42;98058.63;;;4.44;51.14
12757;BME280;31601;48.042;12.240;2023-02-12T01:19:10;98060.41;;;4.44;51.18
12757;BME280;31601;48.042;12.240;2023-02-12T01:21:37;98053.50;;;4.57;50.83
12757;BME280;31601;48.042;12.240;2023-02-12T01:24:04;98051.00;;;4.69;50.57
12757;BME280;31601;48.042;12.240;2023-02-12T01:26:31;98039.38;;;4.74;50.88
12757;BME280;31601;48.042;12.240;2023-02-12T01:28:59;98016.47;;;4.79;51.21
12757;BME280;31601;48.042;12.240;2023-02-12T01:31:30;98020.00;;;4.78;51.17
12757;BME280;31601;48.042;12.240;2023-02-12T01:33:58;98016.47;;;4.79;51.38
12757;BME280;31601;48.042;12.240;2023-02-12T01:36:26;98002.88;;;4.76;51.33
12757;BME280;31601;48.042;12.240;2023-02-12T01:38:53;98006.28;;;4.76;51.33
12757;BME280;31601;48.042;12.240;2023-02-12T01:41:22;98013.88;;;4.79;51.42
12757;BME280;31601;48.042;12.240;2023-02-12T01:44:06;98014.91;;;4.77;51.43
12757;BME280;31601;48.042;12.240;2023-02-12T01:46:35;98021.38;;;4.71;51.24
12757;BME280;31601;48.042;12.240;2023-02-12T01:49:04;98027.50;;;4.70;51.27
12757;BME280;31601;48.042;12.240;2023-02-12T01:51:34;98029.19;;;4.71;51.24
12757;BME280;31601;48.042;12.240;2023-02-12T01:54:04;98038.31;;;4.77;51.09
12757;BME280;31601;48.042;12.240;2023-02-12T01:56:32;98037.50;;;4.76;51.48
12757;BME280;31601;48.042;12.240;2023-02-12T01:58:58;98035.41;;;4.81;50.85
12757;BME280;31601;48.042;12.240;2023-02-12T02:01:27;98038.31;;;4.77;51.07
12757;BME280;31601;48.042;12.240;2023-02-12T02:03:58;98038.75;;;4.83;51.29
12757;BME280;31601;48.042;12.240;2023-02-12T02:06:29;98047.63;;;4.54;51.89
12757;BME280;31601;48.042;12.240;2023-02-12T02:08:56;98049.31;;;4.55;52.39
12757;BME280;31601;48.042;12.240;2023-02-12T02:11:23;98045.19;;;4.65;52.02
12757;BME280;31601;48.042;12.240;2023-02-12T02:14:08;98041.75;;;4.77;51.90
12757;BME280;31601;48.042;12.240;2023-02-12T02:17:01;98050.91;;;4.70;52.28
12757;BME280;31601;48.042;12.240;2023-02-12T02:20:02;98049.13;;;4.71;51.88
12757;BME280;31601;48.042;12.240;2023-02-12T02:22:36;98053.41;;;4.84;51.92
12757;BME280;31601;48.042;12.240;2023-02-12T02:25:42;98040.94;;;4.90;51.84
12757;BME280;31601;48.042;12.240;2023-02-12T02:28:31;98042.47;;;4.92;51.90
12757;BME280;31601;48.042;12.240;2023-02-12T02:31:03;98046.16;;;4.90;52.03
12757;BME280;31601;48.042;12.240;2023-02-12T02:33:36;98039.28;;;4.89;51.99
12757;BME280;31601;48.042;12.240;2023-02-12T02:36:14;98033.75;;;4.93;52.07
12757;BME280;31601;48.042;12.240;2023-02-12T02:38:49;98034.88;;;4.89;52.04
12757;BME280;31601;48.042;12.240;2023-02-12T02:41:19;98023.78;;;4.74;52.50
12757;BME280;31601;48.042;12.240;2023-02-12T02:43:51;98002.22;;;4.72;53.01
12757;BME280;31601;48.042;12.240;2023-02-12T02:46:25;97986.22;;;4.65;53.00
12757;BME280;31601;48.042;12.240;2023-02-12T02:48:57;97979.66;;;4.60;53.80
12757;BME280;31601;48.042;12.240;2023-02-12T02:51:29;97994.72;;;4.55;53.83
12757;BME280;31601;48.042;12.240;2023-02-12T02:54:02;97987.56;;;4.58;53.48
12757;BME280;31601;48.042;12.240;2023-02-12T02:56:31;98005.22;;;4.53;53.80
12757;BME280;31601;48.042;12.240;2023-02-12T02:59:03;98013.44;;;4.60;53.45
12757;BME280;31601;48.042;12.240;2023-02-12T03:01:35;98018.75;;;4.58;53.35
12757;BME280;31601;48.042;12.240;2023-02-12T03:04:05;98023.50;;;4.39;54.00
12757;BME280;31601;48.042;12.240;2023-02-12T03:06:36;98032.81;;;4.28;54.58
12757;BME280;31601;48.042;12.240;2023-02-12T03:09:12;98042.13;;;4.18;55.00
12757;BME280;31601;48.042;12.240;2023-02-12T03:11:40;98048.31;;;4.30;54.67
12757;BME280;31601;48.042;12.240;2023-02-12T03:14:11;98045.66;;;4.44;54.08
12757;BME280;31601;48.042;12.240;2023-02-12T03:16:43;98050.22;;;4.41;54.04
12757;BME280;31601;48.042;12.240;2023-02-12T03:19:17;98063.72;;;4.33;54.63
12757;BME280;31601;48.042;12.240;2023-02-12T03:21:47;98061.75;;;4.37;54.87
12757;BME280;31601;48.042;12.240;2023-02-12T03:24:19;98059.91;;;4.52;54.42
12757;BME280;31601;48.042;12.240;2023-02-12T03:26:50;98053.69;;;4.67;54.14
12757;BME280;31601;48.042;12.240;2023-02-12T03:29:19;98044.78;;;4.71;53.68
12757;BME280;31601;48.042;12.240;2023-02-12T03:31:57;98050.19;;;4.81;53.67
12757;BME280;31601;48.042;12.240;2023-02-12T03:34:34;98042.69;;;4.76;53.59
12757;BME280;31601;48.042;12.240;2023-02-12T03:37:10;98041.56;;;4.80;53.55
12757;BME280;31601;48.042;12.240;2023-02-12T03:39:44;98042.91;;;4.73;53.45
12757;BME280;31601;48.042;12.240;2023-02-12T03:42:17;98039.69;;;4.70;53.61
12757;BME280;31601;48.042;12.240;2023-02-12T03:44:49;98042.03;;;4.60;53.63
12757;BME280;31601;48.042;12.240;2023-02-12T03:47:23;98041.22;;;4.59;54.24
12757;BME280;31601;48.042;12.240;2023-02-12T03:49:57;98040.38;;;4.59;54.23
12757;BME280;31601;48.042;12.240;2023-02-12T03:52:24;98040.28;;;4.60;53.94
12757;BME280;31601;48.042;12.240;2023-02-12T03:54:51;98047.44;;;4.57;54.23
12757;BME280;31601;48.042;12.240;2023-02-12T03:57:19;98055.34;;;4.55;54.57
12757;BME280;31601;48.042;12.240;2023-02-12T03:59:47;98059.31;;;4.61;54.52
12757;BME280;31601;48.042;12.240;2023-02-12T04:02:15;98060.13;;;4.61;54.27
12757;BME280;31601;48.042;12.240;2023-02-12T04:04:45;98053.38;;;4.59;54.55
12757;BME280;31601;48.042;12.240;2023-02-12T04:07:12;98050.88;;;4.57;54.36
12757;BME280;31601;48.042;12.240;2023-02-12T04:09:39;98058.91;;;4.67;54.55
12757;BME280;31601;48.042;12.240;2023-02-12T04:12:18;98058.69;;;4.70;54.22
12757;BME280;31601;48.042;12.240;2023-02-12T04:14:52;98060.38;;;4.71;54.26
12757;BME280;31601;48.042;12.240;2023-02-12T04:17:26;98062.22;;;4.69;54.19
12757;BME280;31601;48.042;12.240;2023-02-12T04:20:04;98058.59;;;4.72;54.61
12757;BME280;31601;48.042;12.240;2023-02-12T04:22:43;98066.72;;;4.67;54.59
12757;BME280;31601;48.042;12.240;2023-02-12T04:25:19;98073.84;;;4.51;55.14
12757;BME280;31601;48.042;12.240;2023-02-12T04:27:54;98074.53;;;4.40;55.82
12757;BME280;31601;48.042;12.240;2023-02-12T04:30:25;98073.44;;;4.57;55.46
12757;BME280;31601;48.042;12.240;2023-02-12T04:32:57;98082.72;;;4.61;55.19
12757;BME280;31601;48.042;12.240;2023-02-12T04:35:30;98081.59;;;4.65;55.24
12757;BME280;31601;48.042;12.240;2023-02-12T04:38:02;98082.94;;;4.71;54.85
12757;BME280;31601;48.042;12.240;2023-02-12T04:40:33;98086.59;;;4.68;55.17
12757;BME280;31601;48.042;12.240;2023-02-12T04:43:00;98082.81;;;4.72;54.89
12757;BME280;31601;48.042;12.240;2023-02-12T04:45:30;98088.88;;;4.73;54.82
12757;BME280;31601;48.042;12.240;2023-02-12T04:47:58;98080.13;;;4.74;54.55
12757;BME280;31601;48.042;12.240;2023-02-12T04:50:27;98087.81;;;4.75;54.64
12757;BME280;31601;48.042;12.240;2023-02-12T04:52:59;98085.13;;;4.77;54.66
12757;BME280;31601;48.042;12.240;2023-02-12T04:55:26;98092.81;;;4.78;54.46
12757;BME280;31601;48.042;12.240;2023-02-12T04:57:52;98092.81;;;4.78;54.38
12757;BME280;31601;48.042;12.240;2023-02-12T05:00:19;98097.91;;;4.80;54.16
12757;BME280;31601;48.042;12.240;2023-02-12T05:02:46;98094.41;;;4.81;54.15
12757;BME280;31601;48.042;12.240;2023-02-12T05:05:12;98104.69;;;4.82;54.22
12757;BME280;31601;48.042;12.240;2023-02-12T05:07:40;98105.31;;;4.73;53.99
12757;BME280;31601;48.042;12.240;2023-02-12T05:10:07;98099.69;;;4.79;54.11
12757;BME280;31601;48.042;12.240;2023-02-12T05:12:34;98109.38;;;4.77;54.27
12757;BME280;31601;48.042;12.240;2023-02-12T05:15:01;98101.47;;;4.79;54.20
12757;BME280;31601;48.042;12.240;2023-02-12T05:17:27;98100.81;;;4.75;54.01
12757;BME280;31601;48.042;12.240;2023-02-12T05:19:53;98103.03;;;4.81;53.79
12757;BME280;31601;48.042;12.240;2023-02-12T05:22:20;98107.28;;;4.82;54.01
12757;BME280;31601;48.042;12.240;2023-02-12T05:24:48;98107.00;;;4.87;53.48
12757;BME280;31601;48.042;12.240;2023-02-12T05:27:14;98107.41;;;4.81;53.81
12757;BME280;31601;48.042;12.240;2023-02-12T05:29:41;98101.28;;;4.82;53.69
12757;BME280;31601;48.042;12.240;2023-02-12T05:32:07;98115.91;;;4.83;53.67
12757;BME280;31601;48.042;12.240;2023-02-12T05:34:34;98105.53;;;4.83;53.97
12757;BME280;31601;48.042;12.240;2023-02-12T05:37:00;98103.03;;;4.81;53.47
12757;BME280;31601;48.042;12.240;2023-02-12T05:39:27;98103.13;;;4.80;53.65
12757;BME280;31601;48.042;12.240;2023-02-12T05:41:55;98105.09;;;4.76;53.69
12757;BME280;31601;48.042;12.240;2023-02-12T05:44:21;98109.03;;;4.69;53.58
12757;BME280;31601;48.042;12.240;2023-02-12T05:46:47;98108.31;;;4.67;53.56
12757;BME280;31601;48.042;12.240;2023-02-12T05:49:14;98107.97;;;4.59;53.70
12757;BME280;31601;48.042;12.240;2023-02-12T05:51:40;98113.56;;;4.53;54.14
12757;BME280;31601;48.042;12.240;2023-02-12T05:54:07;98110.41;;;4.47;54.52
12757;BME280;31601;48.042;12.240;2023-02-12T05:56:35;98112.41;;;4.44;54.72
12757;BME280;31601;48.042;12.240;2023-02-12T05:59:05;98114.16;;;4.43;54.60
12757;BME280;31601;48.042;12.240;2023-02-12T06:01:33;98108.03;;;4.44;55.05
12757;BME280;31601;48.042;12.240;2023-02-12T06:04:02;98111.22;;;4.35;54.86
12757;BME280;31601;48.042;12.240;2023-02-12T06:06:29;98110.38;;;4.35;55.43
12757;BME280;31601;48.042;12.240;2023-02-12T06:08:57;98109.38;;;4.37;55.26
12757;BME280;31601;48.042;12.240;2023-02-12T06:11:24;98107.34;;;4.28;55.45
12757;BME280;31601;48.042;12.240;2023-02-12T06:13:50;98119.19;;;4.32;55.29
12757;BME280;31601;48.042;12.240;2023-02-12T06:16:20;98119.28;;;4.30;55.55
12757;BME280;31601;48.042;12.240;2023-02-12T06:18:47;98123.56;;;4.32;55.67
12757;BME280;31601;48.042;12.240;2023-02-12T06:21:14;98116.41;;;4.35;55.54
12757;BME280;31601;48.042;12.240;2023-02-12T06:23:41;98122.16;;;4.40;55.48
12757;BME280;31601;48.042;12.240;2023-02-12T06:26:07;98131.81;;;4.38;55.54
12757;BME280;31601;48.042;12.240;2023-02-12T06:28:34;98131.81;;;4.38;55.37
12757;BME280;31601;48.042;12.240;2023-02-12T06:31:00;98135.34;;;4.37;55.60
12757;BME280;31601;48.042;12.240;2023-02-12T06:33:28;98131.81;;;4.38;55.74
12757;BME280;31601;48.042;12.240;2023-02-12T06:35:55;98133.47;;;4.39;55.98
12757;BME280;31601;48.042;12.240;2023-02-12T06:38:21;98130.59;;;4.44;55.69
12757;BME280;31601;48.042;12.240;2023-02-12T06:40:48;98132.25;;;4.45;55.93
12757;BME280;31601;48.042;12.240;2023-02-12T06:43:14;98131.22;;;4.47;55.82
12757;BME280;31601;48.042;12.240;2023-02-12T06:45:41;98132.91;;;4.48;55.69
12757;BME280;31601;48.042;12.240;2023-02-12T06:48:07;98135.19;;;4.53;55.69
12757;BME280;31601;48.042;12.240;2023-02-12T06:50:35;98134.81;;;4.59;55.34
12757;BME280;31601;48.042;12.240;2023-02-12T06:53:01;98140.31;;;4.68;55.57
12757;BME280;31601;48.042;12.240;2023-02-12T06:55:28;98141.81;;;4.72;55.58
12757;BME280;31601;48.042;12.240;2023-02-12T06:57:54;98139.63;;;4.78;55.00
12757;BME280;31601;48.042;12.240;2023-02-12T07:00:21;98139.94;;;4.74;55.26
12757;BME280;31601;48.042;12.240;2023-02-12T07:02:52;98143.81;;;4.54;56.58
12757;BME280;31601;48.042;12.240;2023-02-12T07:05:19;98149.91;;;4.40;56.84
12757;BME280;31601;48.042;12.240;2023-02-12T07:07:47;98153.75;;;4.20;57.42
12757;BME280;31601;48.042;12.240;2023-02-12T07:10:13;98157.22;;;4.20;58.06
12757;BME280;31601;48.042;12.240;2023-02-12T07:12:40;98159.13;;;4.31;58.38
12757;BME280;31601;48.042;12.240;2023-02-12T07:15:07;98163.66;;;4.42;58.51
12757;BME280;31601;48.042;12.240;2023-02-12T07:17:34;98164.72;;;4.52;58.08
12757;BME280;31601;48.042;12.240;2023-02-12T07:20:00;98166.41;;;4.66;57.45
12757;BME280;31601;48.042;12.240;2023-02-12T07:22:27;98163.31;;;4.74;57.41
12757;BME280;31601;48.042;12.240;2023-02-12T07:24:55;98162.84;;;4.81;56.85
12757;BME280;31601;48.042;12.240;2023-02-12T07:27:21;98172.63;;;4.91;57.11
12757;BME280;31601;48.042;12.240;2023-02-12T07:29:48;98162.69;;;4.97;57.00
12757;BME280;31601;48.042;12.240;2023-02-12T07:32:14;98164.69;;;5.07;56.39
12757;BME280;31601;48.042;12.240;2023-02-12T07:34:41;98164.06;;;5.16;56.23
12757;BME280;31601;48.042;12.240;2023-02-12T07:37:08;98161.06;;;5.22;56.23
12757;BME280;31601;48.042;12.240;2023-02-12T07:39:34;98160.94;;;5.24;55.77
12757;BME280;31601;48.042;12.240;2023-02-12T07:42:02;98159.06;;;5.26;55.49
12757;BME280;31601;48.042;12.240;2023-02-12T07:44:28;98146.78;;;5.28;55.66
12757;BME280;31601;48.042;12.240;2023-02-12T07:46:58;98145.13;;;5.27;55.25
12757;BME280;31601;48.042;12.240;2023-02-12T07:49:24;98149.06;;;5.19;55.34
12757;BME280;31601;48.042;12.240;2023-02-12T07:51:51;98146.88;;;5.13;54.80
12757;BME280;31601;48.042;12.240;2023-02-12T07:54:20;98148.00;;;5.09;54.86
12757;BME280;31601;48.042;12.240;2023-02-12T07:56:46;98151.97;;;5.02;54.88
12757;BME280;31601;48.042;12.240;2023-02-12T07:59:16;98144.88;;;5.04;54.65
12757;BME280;31601;48.042;12.240;2023-02-12T08:01:45;98148.41;;;5.03;54.76
12757;BME280;31601;48.042;12.240;2023-02-12T08:04:14;98151.31;;;4.98;54.30
12757;BME280;31601;48.042;12.240;2023-02-12T08:06:42;98149.03;;;4.94;54.66
12757;BME280;31601;48.042;12.240;2023-02-12T08:09:12;98148.72;;;4.98;54.39
12757;BME280;31601;48.042;12.240;2023-02-12T08:11:40;98143.22;;;5.03;54.15
12757;BME280;31601;48.042;12.240;2023-02-12T08:14:07;98141.25;;;5.07;54.04
12757;BME280;31601;48.042;12.240;2023-02-12T08:16:39;98140.75;;;5.14;54.25
12757;BME280;31601;48.042;12.240;2023-02-12T08:19:07;98137.44;;;5.25;53.81
12757;BME280;31601;48.042;12.240;2023-02-12T08:21:34;98138.47;;;5.35;53.98
12757;BME280;31601;48.042;12.240;2023-02-12T08:24:00;98138.22;;;5.51;53.93
12757;BME280;31601;48.042;12.240;2023-02-12T08:26:29;98138.53;;;5.72;53.68
12757;BME280;31601;48.042;12.240;2023-02-12T08:28:59;98137.38;;;5.89;52.98
12757;BME280;31601;48.042;12.240;2023-02-12T08:31:28;98134.09;;;6.12;52.28
12757;BME280;31601;48.042;12.240;2023-02-12T08:33:57;98135.22;;;6.20;51.61
12757;BME280;31601;48.042;12.240;2023-02-12T08:36:25;98128.47;;;6.42;51.28
12757;BME280;31601;48.042;12.240;2023-02-12T08:38:53;98129.03;;;6.58;50.46
12757;BME280;31601;48.042;12.240;2023-02-12T08:41:21;98119.13;;;6.75;50.29
12757;BME280;31601;48.042;12.240;2023-02-12T08:43:48;98128.22;;;6.93;49.92
12757;BME280;31601;48.042;12.240;2023-02-12T08:46:17;98128.72;;;6.98;49.37
12757;BME280;31601;48.042;12.240;2023-02-12T08:48:44;98127.28;;;7.06;49.87
12757;BME280;31601;48.042;12.240;2023-02-12T08:51:14;98126.13;;;7.10;49.62
12757;BME280;31601;48.042;12.240;2023-02-12T08:53:42;98124.25;;;7.23;49.85
12757;BME280;31601;48.042;12.240;2023-02-12T08:56:11;98122.94;;;7.17;50.44
12757;BME280;31601;48.042;12.240;2023-02-12T08:58:38;98129.72;;;7.31;50.64
12757;BME280;31601;48.042;12.240;2023-02-12T09:01:09;98132.00;;;7.36;50.96
12757;BME280;31601;48.042;12.240;2023-02-12T09:03:39;98126.53;;;7.50;51.17
12757;BME280;31601;48.042;12.240;2023-02-12T09:06:06;98134.63;;;7.59;51.92
12757;BME280;31601;48.042;12.240;2023-02-12T09:08:35;98134.63;;;7.81;51.95
12757;BME280;31601;48.042;12.240;2023-02-12T09:11:04;98125.59;;;8.08;52.22
12757;BME280;31601;48.042;12.240;2023-02-12T09:13:31;98129.94;;;8.30;52.29
12757;BME280;31601;48.042;12.240;2023-02-12T09:15:59;98130.66;;;8.44;52.32
12757;BME280;31601;48.042;12.240;2023-02-12T09:18:27;98128.63;;;8.36;52.67
12757;BME280;31601;48.042;12.240;2023-02-12T09:20:54;98134.16;;;8.65;51.90
12757;BME280;31601;48.042;12.240;2023-02-12T09:23:25;98133.97;;;8.78;52.21
12757;BME280;31601;48.042;12.240;2023-02-12T09:25:53;98126.91;;;8.90;51.88
12757;BME280;31601;48.042;12.240;2023-02-12T09:28:19;98125.81;;;8.71;51.38
12757;BME280;31601;48.042;12.240;2023-02-12T09:30:46;98125.66;;;8.73;53.02
12757;BME280;31601;48.042;12.240;2023-02-12T09:33:13;98125.38;;;9.08;52.01
12757;BME280;31601;48.042;12.240;2023-02-12T09:35:39;98116.63;;;9.19;50.90
12757;BME280;31601;48.042;12.240;2023-02-12T09:38:06;98129.19;;;9.04;52.29
12757;BME280;31601;48.042;12.240;2023-02-12T09:40:38;98130.94;;;9.15;52.02
12757;BME280;31601;48.042;12.240;2023-02-12T09:43:15;98127.81;;;9.21;52.20
12757;BME280;31601;48.042;12.240;2023-02-12T09:45:46;98131.47;;;8.76;53.31
12757;BME280;31601;48.042;12.240;2023-02-12T09:48:34;98126.31;;;8.86;53.17
12757;BME280;31601;48.042;12.240;2023-02-12T09:51:06;98136.03;;;8.95;53.17
12757;BME280;31601;48.042;12.240;2023-02-12T09:53:35;98141.84;;;8.99;52.62
12757;BME280;31601;48.042;12.240;2023-02-12T09:56:08;98142.09;;;9.17;52.81
12757;BME280;31601;48.042;12.240;2023-02-12T09:58:42;98145.94;;;9.34;52.80
12757;BME280;31601;48.042;12.240;2023-02-12T10:01:12;98145.03;;;9.45;51.84
12757;BME280;31601;48.042;12.240;2023-02-12T10:03:39;98142.81;;;9.71;51.76
12757;BME280;31601;48.042;12.240;2023-02-12T10:06:12;98152.44;;;9.61;52.92
12757;BME280;31601;48.042;12.240;2023-02-12T10:09:16;98149.66;;;9.31;53.80
12757;BME280;31601;48.042;12.240;2023-02-12T10:11:51;98151.00;;;9.78;53.52
12757;BME280;31601;48.042;12.240;2023-02-12T10:17:36;98147.63;;;9.66;53.65
12757;BME280;31601;48.042;12.240;2023-02-12T10:20:23;98158.72;;;9.48;54.45
12757;BME280;31601;48.042;12.240;2023-02-12T10:23:07;98154.38;;;9.17;55.69
12757;BME280;31601;48.042;12.240;2023-02-12T10:25:45;98155.06;;;8.98;55.89
12757;BME280;31601;48.042;12.240;2023-02-12T10:28:16;98152.94;;;9.12;55.99
12757;BME280;31601;48.042;12.240;2023-02-12T10:30:47;98151.06;;;9.14;55.48
12757;BME280;31601;48.042;12.240;2023-02-12T10:33:19;98149.34;;;9.56;54.67
12757;BME280;31601;48.042;12.240;2023-02-12T10:35:53;98147.19;;;9.61;54.31
12757;BME280;31601;48.042;12.240;2023-02-12T10:38:25;98144.75;;;10.10;53.30
12757;BME280;31601;48.042;12.240;2023-02-12T10:40:54;98138.81;;;10.08;53.08
12757;BME280;31601;48.042;12.240;2023-02-12T10:43:23;98143.22;;;9.66;54.19
12757;BME280;31601;48.042;12.240;2023-02-12T10:45:49;98135.63;;;10.35;53.10
12757;BME280;31601;48.042;12.240;2023-02-12T10:48:19;98134.94;;;10.52;51.99
12757;BME280;31601;48.042;12.240;2023-02-12T10:51:05;98139.06;;;9.95;53.04
12757;BME280;31601;48.042;12.240;2023-02-12T10:53:39;98128.13;;;10.30;52.38
12757;BME280;31601;48.042;12.240;2023-02-12T10:56:14;98124.31;;;9.63;54.20
12757;BME280;31601;48.042;12.240;2023-02-12T10:58:50;98127.84;;;9.83;53.32
12757;BME280;31601;48.042;12.240;2023-02-12T11:01:20;98124.78;;;10.18;52.74
12757;BME280;31601;48.042;12.240;2023-02-12T11:03:51;98129.16;;;10.08;53.11
12757;BME280;31601;48.042;12.240;2023-02-12T11:06:20;98127.28;;;9.79;53.36
12757;BME280;31601;48.042;12.240;2023-02-12T11:08:47;98131.69;;;9.06;55.09
12757;BME280;31601;48.042;12.240;2023-02-12T11:11:17;98126.16;;;9.51;54.42
12757;BME280;31601;48.042;12.240;2023-02-12T11:13:52;98126.50;;;9.37;54.88
12757;BME280;31601;48.042;12.240;2023-02-12T11:16:26;98127.56;;;9.55;54.29
12757;BME280;31601;48.042;12.240;2023-02-12T11:18:59;98123.41;;;9.53;54.75
12757;BME280;31601;48.042;12.240;2023-02-12T11:21:25;98128.47;;;9.44;54.57
12757;BME280;31601;48.042;12.240;2023-02-12T11:23:52;98125.03;;;9.02;55.89
12757;BME280;31601;48.042;12.240;2023-02-12T11:26:25;98116.72;;;9.39;55.16
12757;BME280;31601;48.042;12.240;2023-02-12T11:28:54;98120.59;;;9.65;54.49
12757;BME280;31601;48.042;12.240;2023-02-12T11:31:22;98116.66;;;9.50;55.05
12757;BME280;31601;48.042;12.240;2023-02-12T11:34:06;98121.97;;;9.39;55.72
12757;BME280;31601;48.042;12.240;2023-02-12T11:36:35;98116.03;;;9.37;55.32
12757;BME280;31601;48.042;12.240;2023-02-12T11:39:03;98114.38;;;9.36;55.58
12757;BME280;31601;48.042;12.240;2023-02-12T11:41:33;98105.84;;;9.43;55.38
12757;BME280;31601;48.042;12.240;2023-02-12T11:44:02;98110.09;;;9.35;55.22
12757;BME280;31601;48.042;12.240;2023-02-12T11:46:34;98100.06;;;9.71;54.38
12757;BME280;31601;48.042;12.240;2023-02-12T11:49:04;98095.16;;;9.87;53.69
12757;BME280;31601;48.042;12.240;2023-02-12T11:51:33;98089.00;;;10.08;52.68
12757;BME280;31601;48.042;12.240;2023-02-12T11:54:03;98097.31;;;10.23;52.13
12757;BME280;31601;48.042;12.240;2023-02-12T11:56:40;98092.50;;;10.37;52.29
12757;BME280;31601;48.042;12.240;2023-02-12T11:59:24;98093.09;;;10.51;51.52
12757;BME280;31601;48.042;12.240;2023-02-12T12:01:54;98086.88;;;10.62;50.94
12757;BME280;31601;48.042;12.240;2023-02-12T12:04:26;98090.03;;;10.36;51.69
12757;BME280;31601;48.042;12.240;2023-02-12T12:06:56;98085.34;;;10.59;51.46
12757;BME280;31601;48.042;12.240;2023-02-12T12:09:28;98088.38;;;10.64;50.91
12757;BME280;31601;48.042;12.240;2023-02-12T12:12:05;98083.34;;;11.10;50.41
12757;BME280;31601;48.042;12.240;2023-02-12T12:14:40;98072.91;;;11.38;49.91
12757;BME280;31601;48.042;12.240;2023-02-12T12:17:25;98077.81;;;11.13;50.69
12757;BME280;31601;48.042;12.240;2023-02-12T12:20:16;98083.13;;;10.54;51.88
12757;BME280;31601;48.042;12.240;2023-02-12T12:22:49;98080.59;;;10.14;54.06
12757;BME280;31601;48.042;12.240;2023-02-12T12:25:22;98080.94;;;9.90;54.49
12757;BME280;31601;48.042;12.240;2023-02-12T12:27:55;98086.97;;;9.80;54.44
12757;BME280;31601;48.042;12.240;2023-02-12T12:30:46;98082.19;;;9.85;54.56
12757;BME280;31601;48.042;12.240;2023-02-12T12:33:16;98084.59;;;10.28;54.18
12757;BME280;31601;48.042;12.240;2023-02-12T12:35:57;98081.91;;;10.49;53.46
12757;BME280;31601;48.042;12.240;2023-02-12T12:38:36;98073.59;;;10.44;53.29
12757;BME280;31601;48.042;12.240;2023-02-12T12:41:14;98077.75;;;10.46;52.93
12757;BME280;31601;48.042;12.240;2023-02-12T12:43:51;98080.03;;;10.30;53.90
12757;BME280;31601;48.042;12.240;2023-02-12T12:46:32;98086.28;;;10.29;53.78
12757;BME280;31601;48.042;12.240;2023-02-12T12:49:12;98075.28;;;10.35;53.43
12757;BME280;31601;48.042;12.240;2023-02-12T12:54:54;98062.50;;;10.01;54.91
12757;BME280;31601;48.042;12.240;2023-02-12T12:57:36;98063.28;;;9.92;54.65
12757;BME280;31601;48.042;12.240;2023-02-12T13:00:17;98069.09;;;10.05;55.31
12757;BME280;31601;48.042;12.240;2023-02-12T13:06:18;98058.00;;;10.42;53.14
12757;BME280;31601;48.042;12.240;2023-02-12T13:09:06;98058.44;;;10.47;53.44
12757;BME280;31601;48.042;12.240;2023-02-12T13:11:43;98057.78;;;10.14;54.77
12757;BME280;31601;48.042;12.240;2023-02-12T13:14:24;98060.47;;;10.34;54.60
12757;BME280;31601;48.042;12.240;2023-02-12T13:16:59;98061.22;;;10.05;55.54
12757;BME280;31601;48.042;12.240;2023-02-12T13:19:38;98059.53;;;9.75;56.37
12757;BME280;31601;48.042;12.240;2023-02-12T13:22:10;98057.94;;;10.13;55.62
12757;BME280;31601;48.042;12.240;2023-02-12T13:24:44;98048.69;;;10.18;55.64
12757;BME280;31601;48.042;12.240;2023-02-12T13:27:14;98046.69;;;9.81;57.50